Hims, Syria
Current Conditions -  °F | °C
As of 1:00 PM on Sunday 26 Oct 2014 (Local Time) from OSLK Reporting Station
Scattered Clouds Scattered Clouds  
Wind Chill: 82°   Ceiling: Unl
Heat Index: 82°   Visibility: 6mi
Dew Point: 48°   Wind: 5mph
Humidity: 30%   Direction: 270°W
Pressure: 29.97"   Gusts: NA
Location:  34.73°N, 36.72°E
Report Text: OSLK 261000Z 27004KT 9999 FEW026 SCT100 28/09 Q1015
Loading
Personal Weather Stations






























Interactive Weather Map
Tropical Storm Tracking
New forecast layout! Learn more

10-Day Weather Forecast

Advertisements
Track Severe Weather on mobile